createdAt,value
2019-01-14T00:01:56.480Z,2.80
2019-01-14T00:04:23.492Z,2.08
2019-01-14T00:06:50.585Z,2.47
2019-01-14T00:09:23.353Z,2.50
2019-01-14T00:11:46.505Z,1.95
2019-01-14T00:14:13.497Z,2.15
2019-01-14T00:16:40.512Z,2.35
2019-01-14T00:19:07.540Z,1.92
2019-01-14T00:21:34.733Z,2.00
2019-01-14T00:24:01.761Z,2.25
2019-01-14T00:26:28.884Z,2.83
2019-01-14T00:28:58.862Z,2.30
2019-01-14T00:31:25.850Z,1.82
2019-01-14T00:33:53.268Z,2.02
2019-01-14T00:36:20.362Z,2.00
2019-01-14T00:38:47.413Z,2.10
2019-01-14T00:41:14.445Z,2.00
2019-01-14T00:43:41.548Z,1.77
2019-01-14T00:46:08.565Z,2.15
2019-01-14T00:48:35.504Z,1.90
2019-01-14T00:51:02.589Z,2.12
2019-01-14T00:53:29.509Z,1.70
2019-01-14T00:55:56.562Z,1.70
2019-01-14T00:58:23.609Z,1.70
2019-01-14T01:00:50.625Z,1.67
2019-01-14T01:03:17.703Z,1.27
2019-01-14T01:05:44.725Z,1.70
2019-01-14T01:08:11.869Z,1.70
2019-01-14T01:10:38.939Z,1.60
2019-01-14T01:13:06.537Z,1.92
2019-01-14T01:15:33.598Z,1.85
2019-01-14T01:18:00.597Z,1.95
2019-01-14T01:20:28.853Z,2.27
2019-01-14T01:22:55.866Z,2.40
2019-01-14T01:25:22.912Z,2.62
2019-01-14T01:27:49.823Z,2.05
2019-01-14T01:30:17.827Z,2.60
2019-01-14T01:32:44.961Z,2.95
2019-01-14T01:35:12.806Z,2.72
2019-01-14T01:37:39.893Z,1.82
2019-01-14T01:40:11.275Z,2.20
2019-01-14T01:42:38.287Z,2.27
2019-01-14T01:45:06.034Z,2.20
2019-01-14T01:47:33.032Z,2.40
2019-01-14T01:50:00.236Z,2.25
2019-01-14T01:52:27.232Z,1.85
2019-01-14T01:54:54.230Z,2.45
2019-01-14T01:57:21.259Z,2.05
2019-01-14T01:59:48.447Z,1.90
2019-01-14T02:02:15.495Z,1.80
2019-01-14T02:04:42.606Z,1.67
2019-01-14T02:07:09.726Z,1.30
2019-01-14T02:09:36.754Z,1.30
2019-01-14T02:12:04.032Z,1.42
2019-01-14T02:14:31.193Z,1.20
2019-01-14T02:16:58.273Z,1.60
2019-01-14T02:19:25.319Z,1.10
2019-01-14T02:21:52.345Z,1.55
2019-01-14T02:24:19.288Z,1.20
2019-01-14T02:26:46.227Z,1.37
2019-01-14T02:29:13.223Z,1.10
2019-01-14T02:31:40.303Z,1.00
2019-01-14T02:34:07.237Z,1.25
2019-01-14T02:36:35.233Z,1.02
2019-01-14T02:39:05.221Z,0.90
2019-01-14T02:41:32.305Z,0.90
2019-01-14T02:43:59.307Z,1.00
2019-01-14T02:46:26.401Z,1.00
2019-01-14T02:48:53.392Z,0.88
2019-01-14T02:51:20.390Z,1.22
2019-01-14T02:53:47.342Z,0.70
2019-01-14T02:56:14.303Z,0.90
2019-01-14T02:58:41.387Z,0.85
2019-01-14T03:01:08.295Z,0.70
2019-01-14T03:03:35.466Z,0.85
2019-01-14T03:06:02.674Z,1.25
2019-01-14T03:08:29.691Z,0.95
2019-01-14T03:10:56.807Z,1.07
2019-01-14T03:13:23.916Z,1.00
2019-01-14T03:15:50.956Z,0.80
2019-01-14T03:18:18.019Z,1.20
2019-01-14T03:20:45.072Z,1.27
2019-01-14T03:23:12.081Z,1.20
2019-01-14T03:25:39.129Z,1.50
2019-01-14T03:28:06.115Z,1.10
2019-01-14T03:30:33.200Z,1.22
2019-01-14T03:33:00.230Z,1.25
2019-01-14T03:35:27.304Z,1.30
2019-01-14T03:37:54.464Z,1.37
2019-01-14T03:40:21.553Z,1.50
2019-01-14T03:42:48.616Z,1.60
2019-01-14T03:45:15.963Z,1.25
2019-01-14T03:47:42.879Z,1.70
2019-01-14T03:50:21.103Z,1.90
2019-01-14T03:52:48.217Z,2.95
2019-01-14T03:55:15.338Z,1.55
2019-01-14T03:57:42.429Z,2.20
2019-01-14T04:00:11.614Z,1.85
2019-01-14T04:02:40.047Z,2.20
2019-01-14T04:05:07.927Z,2.85
2019-01-14T04:07:34.929Z,2.25
2019-01-14T04:10:03.427Z,3.45
2019-01-14T04:12:30.476Z,2.25
2019-01-14T04:14:57.690Z,2.02
2019-01-14T04:17:24.874Z,2.17
2019-01-14T04:19:52.043Z,2.10
2019-01-14T04:22:19.099Z,1.98
2019-01-14T04:24:46.114Z,2.17
2019-01-14T04:27:13.057Z,1.92
2019-01-14T04:29:40.059Z,2.22
2019-01-14T04:32:07.150Z,2.00
2019-01-14T04:34:34.250Z,2.02
2019-01-14T04:37:01.268Z,1.90
2019-01-14T04:39:28.488Z,2.65
2019-01-14T04:41:55.443Z,2.70
2019-01-14T04:44:22.478Z,2.05
2019-01-14T04:46:49.433Z,3.20
2019-01-14T04:49:16.426Z,2.10
2019-01-14T04:51:43.518Z,2.30
2019-01-14T04:54:10.568Z,2.10
2019-01-14T04:56:37.617Z,2.27
2019-01-14T04:59:04.656Z,2.42
2019-01-14T05:01:31.703Z,1.92
2019-01-14T05:03:58.661Z,1.90
2019-01-14T05:06:25.782Z,2.22
2019-01-14T05:08:52.821Z,2.05
2019-01-14T05:11:19.885Z,2.00
2019-01-14T05:13:46.951Z,1.80
2019-01-14T05:16:14.017Z,1.90
2019-01-14T05:18:41.130Z,2.65
2019-01-14T05:21:08.212Z,2.60
2019-01-14T05:23:35.160Z,2.42
2019-01-14T05:26:02.171Z,2.08
2019-01-14T05:28:29.306Z,1.82
2019-01-14T05:30:56.289Z,2.02
2019-01-14T05:33:23.271Z,2.45
2019-01-14T05:35:50.285Z,1.95
2019-01-14T05:38:17.256Z,2.22
2019-01-14T05:40:44.218Z,2.20
2019-01-14T05:43:11.221Z,3.12
2019-01-14T05:45:38.207Z,2.15
2019-01-14T05:48:05.405Z,2.20
2019-01-14T05:50:32.409Z,1.87
2019-01-14T05:52:59.440Z,2.45
2019-01-14T05:55:26.358Z,2.20
2019-01-14T05:57:53.315Z,2.60
2019-01-14T06:00:27.301Z,2.58
2019-01-14T06:02:54.298Z,2.72
2019-01-14T06:05:21.322Z,2.37
2019-01-14T06:07:48.301Z,2.65
2019-01-14T06:10:15.285Z,2.37
2019-01-14T06:12:42.315Z,2.52
2019-01-14T06:15:09.525Z,2.35
2019-01-14T06:17:38.300Z,2.60
2019-01-14T06:20:07.672Z,2.47
2019-01-14T06:22:34.925Z,2.62
2019-01-14T06:25:02.005Z,2.58
2019-01-14T06:27:29.099Z,2.25
2019-01-14T06:29:56.093Z,1.90
2019-01-14T06:32:23.101Z,3.02
2019-01-14T06:34:50.086Z,2.37
2019-01-14T06:37:17.206Z,1.98
2019-01-14T06:39:44.231Z,1.85
2019-01-14T06:42:11.220Z,1.98
2019-01-14T06:44:38.362Z,2.85
2019-01-14T06:47:05.333Z,3.67
2019-01-14T06:49:32.397Z,2.98
2019-01-14T06:51:59.297Z,2.45
2019-01-14T06:54:26.277Z,2.75
2019-01-14T06:56:53.194Z,2.45
2019-01-14T06:59:20.648Z,3.52
2019-01-14T07:01:47.678Z,2.87
2019-01-14T07:04:14.593Z,2.60
2019-01-14T07:06:41.488Z,2.40
2019-01-14T07:09:08.645Z,2.87
2019-01-14T07:11:36.469Z,2.47
2019-01-14T07:14:03.542Z,1.60
2019-01-14T07:16:30.661Z,2.02
2019-01-14T07:18:57.776Z,1.80
2019-01-14T07:21:24.779Z,2.10
2019-01-14T07:23:51.859Z,1.80
2019-01-14T07:26:18.995Z,2.50
2019-01-14T07:28:46.053Z,2.75
2019-01-14T07:31:13.077Z,2.50
2019-01-14T07:33:40.524Z,2.22
2019-01-14T07:36:07.637Z,2.50
2019-01-14T07:38:34.661Z,2.50
2019-01-14T07:41:01.708Z,2.50
2019-01-14T07:43:28.868Z,2.70
2019-01-14T07:45:55.852Z,2.15
2019-01-14T07:48:22.841Z,1.85
2019-01-14T07:50:49.819Z,2.40
2019-01-14T07:53:16.833Z,1.80
2019-01-14T07:55:43.817Z,2.12
2019-01-14T07:58:10.778Z,1.52
2019-01-14T08:00:38.062Z,1.85
2019-01-14T08:03:05.045Z,2.10
2019-01-14T08:05:36.677Z,1.62
2019-01-14T08:08:03.676Z,1.80
2019-01-14T08:10:30.627Z,1.67
2019-01-14T08:12:57.624Z,1.32
2019-01-14T08:15:24.571Z,1.50
2019-01-14T08:17:51.626Z,1.72
2019-01-14T08:20:19.051Z,1.40
2019-01-14T08:22:45.942Z,1.80
2019-01-14T08:25:13.612Z,2.00
2019-01-14T08:27:40.902Z,1.90
2019-01-14T08:30:12.149Z,1.67
2019-01-14T08:32:39.262Z,2.17
2019-01-14T08:35:06.366Z,1.90
2019-01-14T08:37:33.817Z,1.87
2019-01-14T08:40:00.905Z,1.85
2019-01-14T08:42:27.990Z,2.00
2019-01-14T08:44:54.955Z,1.87
2019-01-14T08:47:21.928Z,2.02
2019-01-14T08:49:48.835Z,1.98
2019-01-14T08:52:15.908Z,1.72
2019-01-14T08:54:43.052Z,2.00
2019-01-14T08:57:10.013Z,2.00
2019-01-14T08:59:37.267Z,2.62
2019-01-14T09:02:04.750Z,2.50
2019-01-14T09:04:32.514Z,2.20
2019-01-14T09:06:59.983Z,1.90
2019-01-14T09:09:27.001Z,1.90
2019-01-14T09:11:53.998Z,2.20
2019-01-14T09:14:20.997Z,1.80
2019-01-14T09:16:47.905Z,2.12
2019-01-14T09:19:14.997Z,1.85
2019-01-14T09:21:42.049Z,1.80
2019-01-14T09:24:08.990Z,2.25
2019-01-14T09:26:36.212Z,1.10
2019-01-14T09:29:03.130Z,0.90
2019-01-14T09:31:32.061Z,1.20
2019-01-14T09:33:59.589Z,0.80
2019-01-14T09:36:26.502Z,0.70
2019-01-14T09:38:53.561Z,0.60
2019-01-14T09:41:20.547Z,0.80
2019-01-14T09:43:47.463Z,0.70
2019-01-14T09:46:14.466Z,0.80
2019-01-14T09:48:41.518Z,0.70
2019-01-14T09:51:08.557Z,0.80
2019-01-14T09:53:35.529Z,0.85
2019-01-14T09:56:02.760Z,0.75
2019-01-14T09:58:29.713Z,0.90
2019-01-14T10:00:56.701Z,0.90
2019-01-14T10:03:23.731Z,0.82
2019-01-14T10:05:50.770Z,0.78
2019-01-14T10:08:17.909Z,0.60
2019-01-14T10:10:44.882Z,0.65
2019-01-14T10:13:11.793Z,0.70
2019-01-14T10:15:38.826Z,0.85
2019-01-14T10:18:06.047Z,0.70
2019-01-14T10:20:33.053Z,0.82
2019-01-14T10:22:59.964Z,1.00
2019-01-14T10:25:27.075Z,0.80
2019-01-14T10:27:54.057Z,0.72
2019-01-14T10:30:21.143Z,0.90
2019-01-14T10:32:48.115Z,1.02
2019-01-14T10:35:15.325Z,1.10
2019-01-14T10:37:42.335Z,1.00
2019-01-14T10:40:10.830Z,1.37
2019-01-14T10:42:37.864Z,1.00
2019-01-14T10:45:08.282Z,1.00
2019-01-14T10:47:35.312Z,1.22
2019-01-14T10:50:03.120Z,1.20
2019-01-14T10:52:30.123Z,1.07
2019-01-14T10:54:57.257Z,1.17
2019-01-14T10:57:24.329Z,1.30
2019-01-14T10:59:51.521Z,0.93
2019-01-14T11:02:18.841Z,1.65
2019-01-14T11:04:45.778Z,0.78
2019-01-14T11:07:12.737Z,1.20
2019-01-14T11:09:44.552Z,1.00
2019-01-14T11:12:08.710Z,0.90
2019-01-14T11:14:35.804Z,1.00
2019-01-14T11:17:02.954Z,1.05
2019-01-14T11:19:29.930Z,1.02
2019-01-14T11:21:56.857Z,1.20
2019-01-14T11:24:23.787Z,1.65
2019-01-14T11:26:51.044Z,1.32
2019-01-14T11:29:17.921Z,1.20
2019-01-14T11:31:44.898Z,1.35
2019-01-14T11:34:11.793Z,1.70
2019-01-14T11:36:38.742Z,1.30
2019-01-14T11:39:15.544Z,1.60
2019-01-14T11:41:42.526Z,1.60
2019-01-14T11:44:09.405Z,1.25
2019-01-14T11:46:36.389Z,1.85
2019-01-14T11:49:03.421Z,1.52
2019-01-14T11:51:30.923Z,1.72
2019-01-14T11:53:57.988Z,1.67
2019-01-14T11:56:24.962Z,1.70
2019-01-14T11:58:51.975Z,1.80
2019-01-14T12:01:18.986Z,1.90
2019-01-14T12:03:46.038Z,1.35
2019-01-14T12:06:13.102Z,2.10
2019-01-14T12:08:40.026Z,2.40
2019-01-14T12:11:07.106Z,2.02
2019-01-14T12:13:34.045Z,2.05
2019-01-14T12:16:02.145Z,1.70
2019-01-14T12:18:29.203Z,1.90
2019-01-14T12:20:56.090Z,1.90
2019-01-14T12:23:23.494Z,1.70
2019-01-14T12:25:50.597Z,1.80
2019-01-14T12:28:17.628Z,2.08
2019-01-14T12:30:45.152Z,2.10
2019-01-14T12:33:12.217Z,1.75
2019-01-14T12:35:39.133Z,2.50
2019-01-14T12:38:06.181Z,2.12
2019-01-14T12:40:33.117Z,1.80
2019-01-14T12:43:00.180Z,3.22
2019-01-14T12:45:27.191Z,2.20
2019-01-14T12:47:54.151Z,2.12
2019-01-14T12:50:21.121Z,2.12
2019-01-14T12:52:48.055Z,2.08
2019-01-14T12:55:15.172Z,1.62
2019-01-14T12:57:42.278Z,2.60
2019-01-14T13:00:15.188Z,1.77
2019-01-14T13:02:42.092Z,2.20
2019-01-14T13:05:09.858Z,1.37
2019-01-14T13:07:36.875Z,2.92
2019-01-14T13:10:04.612Z,2.83
2019-01-14T13:12:31.615Z,1.55
2019-01-14T13:14:58.618Z,1.60
2019-01-14T13:17:25.586Z,1.67
2019-01-14T13:19:52.538Z,1.60
2019-01-14T13:22:19.482Z,2.10
2019-01-14T13:24:46.413Z,1.55
2019-01-14T13:27:13.541Z,2.20
2019-01-14T13:29:40.550Z,1.52
2019-01-14T13:32:07.490Z,1.90
2019-01-14T13:34:34.399Z,2.00
2019-01-14T13:37:01.356Z,2.10
2019-01-14T13:39:33.930Z,1.82
2019-01-14T13:41:57.213Z,1.57
2019-01-14T13:44:24.411Z,1.65
2019-01-14T13:46:51.680Z,1.92
2019-01-14T13:49:18.731Z,2.10
2019-01-14T13:51:47.022Z,1.70
2019-01-14T13:54:14.158Z,2.05
2019-01-14T13:56:41.143Z,1.95
2019-01-14T13:59:08.176Z,1.85
2019-01-14T14:01:35.288Z,2.05
2019-01-14T14:04:02.451Z,1.32
2019-01-14T14:06:29.436Z,1.65
2019-01-14T14:08:56.457Z,1.92
2019-01-14T14:11:23.368Z,1.37
2019-01-14T14:13:50.632Z,1.85
2019-01-14T14:16:17.666Z,1.75
2019-01-14T14:18:44.692Z,1.70
2019-01-14T14:21:11.747Z,1.67
2019-01-14T14:23:38.685Z,2.20
2019-01-14T14:26:05.748Z,1.85
2019-01-14T14:28:32.767Z,1.65
2019-01-14T14:30:59.671Z,1.85
2019-01-14T14:33:26.681Z,2.10
2019-01-14T14:35:53.569Z,1.95
2019-01-14T14:38:20.534Z,1.72
2019-01-14T14:40:47.517Z,2.00
2019-01-14T14:43:14.509Z,2.20
2019-01-14T14:45:41.609Z,1.60
2019-01-14T14:48:10.400Z,2.02
2019-01-14T14:50:37.454Z,1.85
2019-01-14T14:53:04.430Z,2.08
2019-01-14T14:55:31.378Z,2.72
2019-01-14T14:57:58.410Z,2.27
2019-01-14T15:00:25.676Z,2.08
2019-01-14T15:02:52.658Z,2.25
2019-01-14T15:05:19.811Z,1.65
2019-01-14T15:07:46.924Z,2.00
2019-01-14T15:10:15.584Z,1.70
2019-01-14T15:12:42.537Z,1.75
2019-01-14T15:15:11.548Z,1.80
2019-01-14T15:17:38.546Z,1.65
2019-01-14T15:20:09.252Z,2.65
2019-01-14T15:22:36.237Z,2.12
2019-01-14T15:25:03.567Z,2.40
2019-01-14T15:27:30.777Z,2.05
2019-01-14T15:29:57.856Z,1.47
2019-01-14T15:32:26.847Z,1.90
2019-01-14T15:34:53.925Z,2.30
2019-01-14T15:37:20.809Z,1.70
2019-01-14T15:39:47.727Z,2.65
2019-01-14T15:42:14.797Z,1.92
2019-01-14T15:44:41.788Z,2.02
2019-01-14T15:47:08.794Z,1.92
2019-01-14T15:49:35.732Z,1.80
2019-01-14T15:52:02.952Z,1.52
2019-01-14T15:54:29.911Z,1.45
2019-01-14T15:56:56.947Z,1.50
2019-01-14T15:59:23.969Z,1.15
2019-01-14T16:01:51.011Z,0.90
2019-01-14T16:04:17.973Z,1.05
2019-01-14T16:06:44.927Z,1.50
2019-01-14T16:09:11.950Z,1.05
2019-01-14T16:11:38.954Z,1.30
2019-01-14T16:14:06.049Z,1.40
2019-01-14T16:16:32.949Z,1.45
2019-01-14T16:18:59.890Z,1.20
2019-01-14T16:21:26.920Z,1.30
2019-01-14T16:23:53.889Z,1.50
2019-01-14T16:26:21.488Z,1.05
2019-01-14T16:28:50.370Z,1.30
2019-01-14T16:31:18.899Z,1.45
2019-01-14T16:33:51.919Z,1.40
2019-01-14T16:36:18.861Z,1.60
2019-01-14T16:38:45.914Z,1.98
2019-01-14T16:41:12.793Z,1.75
2019-01-14T16:43:39.734Z,1.40
2019-01-14T16:46:06.762Z,1.60
2019-01-14T16:48:33.801Z,2.50
2019-01-14T16:51:00.804Z,1.42
2019-01-14T16:53:27.852Z,2.25
2019-01-14T16:55:54.826Z,2.00
2019-01-14T16:58:21.977Z,1.90
2019-01-14T17:00:49.025Z,1.70
2019-01-14T17:03:16.221Z,2.47
2019-01-14T17:05:43.145Z,3.15
2019-01-14T17:08:10.199Z,2.00
2019-01-14T17:10:37.252Z,2.05
2019-01-14T17:13:04.374Z,1.95
2019-01-14T17:15:31.592Z,2.15
2019-01-14T17:18:00.360Z,2.25
2019-01-14T17:20:27.478Z,2.50
2019-01-14T17:22:54.401Z,2.90
2019-01-14T17:25:21.328Z,2.52
2019-01-14T17:27:48.573Z,2.35
2019-01-14T17:30:16.101Z,2.80
2019-01-14T17:32:43.103Z,2.25
2019-01-14T17:35:10.186Z,2.33
2019-01-14T17:37:37.181Z,2.58
2019-01-14T17:40:06.946Z,3.45
2019-01-14T17:42:33.981Z,2.60
2019-01-14T17:45:00.915Z,2.20
2019-01-14T17:47:28.100Z,2.70
2019-01-14T17:49:55.176Z,2.45
2019-01-14T17:52:22.342Z,2.87
2019-01-14T17:54:49.430Z,2.50
2019-01-14T17:57:16.608Z,2.72
2019-01-14T17:59:43.677Z,2.37
2019-01-14T18:02:10.804Z,2.75
2019-01-14T18:04:38.000Z,1.70
2019-01-14T18:07:05.002Z,2.42
2019-01-14T18:09:32.014Z,3.22
2019-01-14T18:11:58.964Z,2.55
2019-01-14T18:14:26.329Z,2.20
2019-01-14T18:16:53.311Z,2.30
2019-01-14T18:19:20.360Z,2.65
2019-01-14T18:21:47.350Z,2.67
2019-01-14T18:24:15.752Z,3.47
2019-01-14T18:26:42.757Z,2.02
2019-01-14T18:29:09.845Z,3.10
2019-01-14T18:31:37.017Z,2.60
2019-01-14T18:34:03.935Z,2.40
2019-01-14T18:36:31.060Z,2.60
2019-01-14T18:38:58.098Z,2.75
2019-01-14T18:41:25.126Z,2.45
2019-01-14T18:43:52.467Z,2.50
2019-01-14T18:46:19.450Z,2.00
2019-01-14T18:48:46.576Z,2.42
2019-01-14T18:51:16.748Z,2.47
2019-01-14T18:53:43.797Z,2.30
2019-01-14T18:56:10.988Z,2.27
2019-01-14T18:58:38.002Z,2.10
2019-01-14T19:01:05.061Z,2.00
2019-01-14T19:03:31.954Z,2.08
2019-01-14T19:05:58.981Z,2.30
2019-01-14T19:08:25.966Z,2.20
2019-01-14T19:10:54.494Z,2.02
2019-01-14T19:13:21.716Z,2.45
2019-01-14T19:15:48.770Z,1.87
2019-01-14T19:18:16.041Z,2.27
2019-01-14T19:20:43.144Z,1.95
2019-01-14T19:23:10.231Z,1.98
2019-01-14T19:25:37.356Z,2.08
2019-01-14T19:28:04.722Z,1.92
2019-01-14T19:30:32.796Z,1.90
2019-01-14T19:32:59.769Z,1.50
2019-01-14T19:35:26.713Z,2.12
2019-01-14T19:37:54.158Z,1.70
2019-01-14T19:40:21.297Z,2.00
2019-01-14T19:42:48.282Z,1.90
2019-01-14T19:45:16.515Z,2.27
2019-01-14T19:47:43.645Z,1.90
2019-01-14T19:50:14.104Z,1.80
2019-01-14T19:52:41.220Z,2.50
2019-01-14T19:55:08.189Z,2.17
2019-01-14T19:57:35.217Z,2.45
2019-01-14T20:00:04.384Z,1.90
2019-01-14T20:02:31.423Z,2.35
2019-01-14T20:04:58.557Z,3.45
2019-01-14T20:07:25.651Z,1.95
2019-01-14T20:09:52.885Z,3.02
2019-01-14T20:12:19.877Z,2.50
2019-01-14T20:14:47.001Z,2.08
2019-01-14T20:17:14.008Z,2.55
2019-01-14T20:19:41.233Z,2.37
2019-01-14T20:22:08.248Z,2.05
2019-01-14T20:24:35.206Z,3.52
2019-01-14T20:27:02.592Z,2.65
2019-01-14T20:29:29.817Z,2.95
2019-01-14T20:31:57.056Z,2.67
2019-01-14T20:34:24.120Z,2.75
2019-01-14T20:36:51.182Z,2.47
2019-01-14T20:39:18.114Z,2.55
2019-01-14T20:41:45.238Z,2.20
2019-01-14T20:44:12.371Z,2.60
2019-01-14T20:46:39.423Z,2.52
2019-01-14T20:49:06.345Z,2.50
2019-01-14T20:51:33.336Z,2.08
2019-01-14T20:54:00.338Z,2.25
2019-01-14T20:56:27.309Z,2.30
2019-01-14T20:58:54.521Z,2.33
2019-01-14T21:01:21.581Z,2.30
2019-01-14T21:03:48.849Z,2.30
2019-01-14T21:06:15.966Z,2.12
2019-01-14T21:08:43.691Z,2.85
2019-01-14T21:11:11.011Z,2.17
2019-01-14T21:13:38.591Z,2.80
2019-01-14T21:16:05.754Z,2.75
2019-01-14T21:18:33.200Z,2.70
2019-01-14T21:21:00.336Z,2.47
2019-01-14T21:23:27.612Z,2.75
2019-01-14T21:25:54.864Z,3.77
2019-01-14T21:28:22.048Z,3.00
2019-01-14T21:30:49.188Z,3.52
2019-01-14T21:33:16.297Z,3.65
2019-01-14T21:35:43.373Z,3.05
2019-01-14T21:38:10.400Z,4.03
2019-01-14T21:40:37.531Z,3.80
2019-01-14T21:43:04.793Z,3.75
2019-01-14T21:45:32.001Z,4.78
2019-01-14T21:47:59.192Z,4.05
2019-01-14T21:50:26.306Z,4.60
2019-01-14T21:52:53.441Z,4.20
2019-01-14T21:55:23.323Z,4.83
2019-01-14T21:57:50.328Z,4.17
2019-01-14T22:00:21.278Z,4.25
2019-01-14T22:02:50.061Z,3.75
2019-01-14T22:05:18.169Z,4.00
2019-01-14T22:07:46.498Z,3.85
2019-01-14T22:10:33.011Z,4.00
2019-01-14T22:13:00.238Z,4.15
2019-01-14T22:15:27.208Z,3.92
2019-01-14T22:17:54.302Z,3.30
2019-01-14T22:20:24.802Z,3.95
2019-01-14T22:22:52.956Z,3.27
2019-01-14T22:25:20.137Z,2.80
2019-01-14T22:27:47.293Z,3.70
2019-01-14T22:30:17.085Z,3.27
2019-01-14T22:32:44.424Z,2.90
2019-01-14T22:35:12.165Z,3.20
2019-01-14T22:37:40.464Z,3.02
2019-01-14T22:40:08.618Z,3.30
2019-01-14T22:42:35.827Z,2.90
2019-01-14T22:45:04.261Z,3.30
2019-01-14T22:47:31.242Z,3.30
2019-01-14T22:49:58.420Z,3.60
2019-01-14T22:52:25.451Z,2.77
2019-01-14T22:54:52.480Z,2.83
2019-01-14T22:57:19.517Z,3.00
2019-01-14T22:59:46.858Z,3.02
2019-01-14T23:02:14.350Z,3.50
2019-01-14T23:04:41.304Z,2.90
2019-01-14T23:07:08.203Z,3.30
2019-01-14T23:09:35.189Z,3.45
2019-01-14T23:12:02.153Z,2.70
2019-01-14T23:14:29.110Z,2.83
2019-01-14T23:16:56.218Z,2.90
2019-01-14T23:19:23.286Z,3.45
2019-01-14T23:21:50.265Z,3.98
2019-01-14T23:24:17.165Z,2.90
2019-01-14T23:26:44.325Z,3.05
2019-01-14T23:29:11.260Z,3.10
2019-01-14T23:31:38.273Z,3.47
2019-01-14T23:34:05.150Z,3.25
2019-01-14T23:36:32.081Z,3.33
2019-01-14T23:38:59.018Z,3.62
2019-01-14T23:41:25.968Z,3.62
2019-01-14T23:43:52.913Z,3.35
2019-01-14T23:46:21.540Z,3.05
2019-01-14T23:48:48.519Z,3.70
2019-01-14T23:51:15.553Z,3.52
2019-01-14T23:53:42.732Z,3.80
2019-01-14T23:56:09.868Z,2.72
2019-01-14T23:58:36.983Z,3.42
